Sign in:
Email
 Password  save:
  
 Company Reports 
 
   
My Recent Searches
  Help
 
   
 
 
Get Institutions for : 
Liberty Media Interactive (LINTA)    
$28.45 0.26 (0.92%) as of 4:30 Thu 12/18


Download
     
Institutional Holders
Viewing Quarter :
  
Total Institutions: 389    19
Total shares held : 
368,826,554  
% of shares held : 
66.02%  
Changes In:
New/increased positions vs   
old/decreased positions : 
  -56  
Amount of shares held : 
-34,512,362  
% of shares held change : 
  -6.18%  
Quarter Price vs. Current Price:
Last Quarter's Starting Price
$29.85  
Last Quarter's Ending Price : 
$28.52  
Last Quarter's Average Price
$28.88  
Change from last quarter's     
avg. price to the last closing  : 
0.43 (1.51%)  




 
All Securities Held :
Positions
     Shares
% Of
Total Shares
New Positions :
28
 4,284,212
 1.16%
 
Increased Positions :
111
 14,792,196
 4.01%
 
Unchanged Positions :
102
 20,367,187
 5.52%
 
Decreased Positions :
148
-22,840,884
-6.19%
 
Closed Positions :
47
-30,747,886
-8.34%
 
Guru Positions :
2
5,218,030
 1.41%
 
View holdings for period: 
12-31-2012 View holdings for period: 
3-31-2013 View holdings for period: 
6-30-2013 View holdings for period: 
9-30-2013 View holdings for period: 
12-31-2013 View holdings for period: 
3-31-2014 View holdings for period: 
6-30-2014 View holdings for the current period

  Page 1 of 1  
Free Registration Required For Full Results


            Institution Name
Portfolio
Position
New/Closed
Position

Filing Date

Total Shares

Total Value

Change in Shares

File
   Jackson Square Partners LLC 12 - 2014-09-30 26,825,771 $765,071,000 -1,486,758
   HARRIS ASSOCIATES L P 29 - 2014-09-30 20,750,297 $591,798,000 -3,236,025
   BROWN BROTHERS HARRIMAN & CO 22 - 2014-09-30 20,364,464 $580,795,000 -20,025
   FMR LLC 299 - 2014-09-30 18,892,660 $538,818,000 -2,806,214
   CLEARBRIDGE ADVISORS LLC 54 - 2014-09-30 16,067,065 $458,233,000 287,063
   VANGUARD GROUP INC 644 - 2014-09-30 12,921,582 $368,524,000 129,140
   BLACKROCK INSTITUTIONAL TRUST COMPANY - 2014-09-30 11,497,289 $327,903,000 -49,450
   STATE STREET CORP 477 - 2014-09-30 10,539,686 $300,600,000 -302,564
   DAVIS SELECTED ADVISERS 36 - 2014-09-30 9,907,673 $282,551,000 -32,368
   BRAHMAN CAPITAL CORP. 5 - 2014-09-30 9,515,484 $271,382,000 1,512,200
   MACQUARIE GROUP LTD 47 - 2014-09-30 8,683,479 $247,604,000 52,888
   PRINCIPAL FINANCIAL GROUP INC 45 - 2014-09-30 8,377,590 $238,929,000 -76,234
   ARTISAN PARTNERS LIMITED PARTNERSHIP 85 - 2014-09-30 7,974,675 $227,438,000 581,318
   D E SHAW & CO INC 43 - 2014-09-30 7,369,014 $210,164,000 1,589,464
   RS INVESTMENT MANAGEMENT CO LLC 1 - 2014-09-30 7,281,608 $207,671,000 -132,393
   HORIZON KINETICS LLC 12 - 2014-09-30 6,915,682 $197,235,000 -27,687
   GOLDMAN SACHS GROUP INC/ 315 - 2014-09-30 5,846,795 $166,750,000 -274,010
   INVESCO LTD 336 - 2014-09-30 5,794,471 $165,258,000 -433,841
   DIMENSIONAL FUND ADVISORS INC 142 - 2014-09-30 5,627,406 $160,489,000 -83,593
   SARBIT ADVISORY SERVICES INC. 4 - 2014-09-30 4,161,500 $149,091,000 16,000
   WEITZ WALLACE R & CO -- Notable Guru -- 4 - 2014-09-30 5,218,030 $148,818,000 60,765
   FPR PARTNERS LLC 9 - 2014-09-30 4,245,948 $121,094,000 -186,890
   TIAA CREF INVESTMENT MANAGEMENT LLC 266 - 2014-09-30 4,068,662 $116,038,000 -91,617
   OWL CREEK ASSET MANAGEMENT, L.P. 10 - 2014-09-30 3,862,873 $110,169,000 -607,860
   BLACKROCK FUND ADVISORS - 2014-09-30 3,649,494 $104,084,000 96,775
   OSTERWEIS CAPITAL MANAGEMENT INC 15 - 2014-09-30 3,270,623 $93,278,000 400,527
   LOOMIS SAYLES & CO L P 53 - 2014-09-30 3,211,863 $91,603,000 -73,770
   UNITED STATES STEEL & CARNEGIE PENSION FD 21 - 2014-09-30 3,106,172 $88,588,000 0
   NORTHERN TRUST CORP 529 - 2014-09-30 2,983,420 $85,087,000 -35,863
   YACKTMAN ASSET MANAGEMENT CO/IL 35 - 2014-09-30 2,941,301 $83,886,000 0
   MAKAIRA PARTNERS LLC 2 - 2014-09-30 2,881,742 $82,187,000 0
   LYRICAL ASSET MANAGEMENT LP 12 - 2014-09-30 2,824,805 $80,563,000 488,577
   BLACKROCK GROUP LTD - 2014-09-30 2,622,504 $74,793,000 -207,651
   BANK OF NEW YORK MELLON CORP 682 - 2014-09-30 2,598,725 $74,115,000 -21,064
   GEODE CAPITAL MANAGEMENT LLC 385 - 2014-09-30 2,526,182 $72,027,000 19,164
   JANA PARTNERS LLC 34 - 2014-09-30 2,440,166 $69,594,000 0
   IVORY INVESTMENT MANAGEMENT LP 12 - 2014-09-30 2,368,952 $67,563,000 1,553,959
   FIRST REPUBLIC INVESTMENT MANAGEMENT, INC. 30 - 2014-09-30 2,329,102 $66,426,000 2,308,401
   GAMCO INVESTORS INC ET AL - 2014-09-30 2,208,576 $62,989,000 -9,670
   INTERNATIONAL VALUE ADVISERS, LLC 26 - 2014-09-30 2,183,182 $62,264,000 23,851
   LEGAL & GENERAL GROUP PLC 321 - 2014-09-30 2,028,418 $57,848,000 -15,363
   TEACHERS ADVISORS INC 239 - 2014-09-30 1,896,421 $54,086,000 59,442
   POLAR CAPITAL LLP 23 - 2014-09-30 1,777,076 $50,682,000 457,623
   ALLIANCEBERNSTEIN L.P. 455 - 2014-09-30 1,765,950 $50,365,000 -960,292
   WHITE ELM CAPITAL, LLC 12 - 2014-09-30 1,677,576 $47,845,000 0
   MILLENNIUM MANAGEMENT LLC 161 - 2014-09-30 1,675,144 $47,775,000 176,304
   PORTER ORLIN LLC 20 - 2014-09-30 1,570,000 $44,776,000 -150,000
   CITADEL ADVISORS LLC 292 - 2014-09-30 1,544,915 $44,061,000 486,644
   MITSUBISHI UFJ TRUST & BANKING CORP 232 - 2014-09-30 1,541,705 $43,969,000 -512,487
   FRESHFORD CAPITAL MANAGEMENT, LLC 4 - 2014-09-30 1,442,303 $41,134,000 0
   CREDIT SUISSE/ 520 - 2014-09-30 1,427,340 $40,707,000 381,661
   Tyrian Investments L.P. 8 - 2014-09-30 1,375,000 $39,215,000 420,376
   PARAMETRIC PORTFOLIO ASSOCIATES 240 - 2014-09-30 1,374,917 $39,213,000 -197,408
   CALIFORNIA PUBLIC EMPLOYEES RETIREMENT SYSTEM 366 - 2014-09-30 1,358,250 $38,737,000 -36,800
   GABELLI FUNDS LLC - 2014-09-30 1,354,100 $38,619,000 3,000
   LOCUST WOOD CAPITAL ADVISERS LLC - 2014-09-30 1,330,969 $37,959,000 186,175
   MORGAN STANLEY 994 - 2014-09-30 1,277,409 $36,432,000 262,265
   UBS GLOBAL ASSET MANAGEMENT AMERICAS INC - 2014-09-30 1,267,664 $36,153,000 -2,111
   EMINENCE CAPITAL LLC 59 - 2014-09-30 1,263,071 $36,023,000 538,071
   NEW SOUTH CAPITAL MANAGEMENT INC 38 - 2014-09-30 1,254,976 $35,792,000 -3,786
   SCHWAB CHARLES INVESTMENT MANAGEMENT INC 309 - 2014-06-30 1,193,518 $35,042,000 -435,902
   CORSAIR CAPITAL MANAGEMENT LLC 11 - 2014-09-30 1,363,970 $35,027,000 -37,611
   FINDLAY PARK PARTNERS LLP 86 - 2014-09-30 1,172,856 $33,450,000 -1,400,000
   BLACKROCK INC. - 2014-09-30 1,165,011 $33,225,000 -175,769
   WELLS FARGO & CO/MN 956 - 2014-09-30 1,162,440 $32,740,000 -65,424
   DISCOVERY CAPITAL MANAGEMENT LLC 57 *New 2014-09-30 1,097,200 $31,292,000 1,097,200
   EAGLE ASSET MANAGEMENT INC - 2014-09-30 1,087,482 $31,014,000 -13,114
   SCOPUS ASSET MANAGEMENT LP 37 - 2014-09-30 1,051,394 $29,986,000 -255,336
   STONERISE CAPITAL MANAGEMENT, LLC 3 - 2014-09-30 1,000,000 $28,520,000 0
   WALLACE CAPITAL MANAGEMENT INC. 6 - 2014-09-30 984,993 $28,092,000 -11,855
   RENAISSANCE TECHNOLOGIES LLC 323 - 2014-09-30 969,050 $27,637,000 -501,200
   TACONIC CAPITAL ADVISORS LP 28 *New 2014-09-30 950,000 $27,094,000 950,000
   HIGHFIELDS CAPITAL MANAGEMENT LP 63 - 2014-09-30 926,000 $26,410,000 0
   CALIFORNIA STATE TEACHERS RETIREMENT SYSTEM 296 - 2014-09-30 920,356 $26,249,000 24,274
   DEUTSCHE BANK AG 799 - 2014-09-30 920,425 $26,247,000 -410,328
   CLOUGH CAPITAL PARTNERS L P 42 - 2014-09-30 892,086 $25,442,000 -22,500
   MANAGED ACCOUNT ADVISORS LLC 607 - 2014-09-30 861,122 $24,559,000 74,809
   STATE BOARD OF ADMINISTRATION OF FLORIDA RETIREMEN 258 - 2014-09-30 849,716 $24,234,000 -1,420
   QVT FINANCIAL LP 23 - 2014-09-30 786,900 $22,442,000 152,500
   FAIRVIEW CAPITAL INVESTMENT MANAGEMENT 20 - 2014-09-30 743,328 $21,200,000 -12,241
   SEVEN LOCKS CAPITAL MANAGEMENT LP 7 - 2014-09-30 823,929 $19,887,000 235,900
   OXFORD ASSET MANAGEMENT 14 - 2014-09-30 680,570 $19,352,000 27,317
   MARKSTON INTERNATIONAL LLC 21 - 2014-09-30 674,573 $19,239,000 -7,709
   STALEY CAPITAL ADVISERS INC 19 - 2014-09-30 643,166 $18,343,000 93,166
   RUSSELL FRANK CO/ 609 - 2014-09-30 619,974 $17,682,000 -197,223
   LOEWS CORP 9 *New 2014-09-30 610,000 $17,397,000 610,000
   MIZUHO TRUST & BANKING CO., LTD. 330 - 2014-09-30 608,013 $17,296,000 -52,201
   FORT HOOSAC MANAGEMENT, LLC 6 - 2014-09-30 578,700 $16,505,000 -10,000
   LOS ANGELES CAPITAL MANAGEMENT & EQUITY RESEARCH I 144 - 2014-09-30 533,666 $15,220,000 -196,911
   APG ALL PENSIONS GROUP 490 - 2014-09-30 530,637 $15,134,000 30,083
   J P MORGAN CHASE & CO 1381 - 2014-09-30 518,606 $14,791,000 -4,371
   BLACKROCK JAPAN CO LTD - 2014-09-30 512,014 $14,603,000 33,910
   BLACKROCK ADVISORS LLC - 2014-09-30 486,309 $13,870,000 5,466
   SG AMERICAS SECURITIES LLC 236 - 2014-09-30 482,384 $13,758,000 -11,733
   BANK OF AMERICA CORP /DE/ 1323 - 2014-09-30 466,853 $13,315,000 51,416
   CIBELLI CAPITAL MANAGEMENT LLC 6 - 2014-09-30 455,000 $12,977,000 0
   FIRST TRUST ADVISORS LP 601 - 2014-09-30 447,219 $12,755,000 18,199
   UBS AG 959 - 2014-09-30 446,553 $12,736,000 89,447
   Swiss National Bank 368 - 2014-09-30 445,048 $12,693,000 -12,200
   Concourse Capital Management LLC 2 - 2014-09-30 442,463 $12,619,000 378,282

  100 Records found
  1    
  Page 1 of 1
Free Registration Required For Full Results